sensor_id;sensor_type;location;lat;lon;timestamp;P1;durP1;ratioP1;P2;durP2;ratioP2
10281;SDS011;5186;59.472;18.048;2024-02-14T00:01:55;6.37;;;4.40;;
10281;SDS011;5186;59.472;18.048;2024-02-14T00:04:20;7.63;;;3.90;;
10281;SDS011;5186;59.472;18.048;2024-02-14T00:06:46;9.07;;;4.63;;
10281;SDS011;5186;59.472;18.048;2024-02-14T00:09:12;8.70;;;4.60;;
10281;SDS011;5186;59.472;18.048;2024-02-14T00:11:38;7.10;;;4.57;;
10281;SDS011;5186;59.472;18.048;2024-02-14T00:14:03;6.27;;;4.10;;
10281;SDS011;5186;59.472;18.048;2024-02-14T00:16:29;7.83;;;4.90;;
10281;SDS011;5186;59.472;18.048;2024-02-14T00:18:58;5.67;;;4.03;;
10281;SDS011;5186;59.472;18.048;2024-02-14T00:21:27;7.27;;;4.40;;
10281;SDS011;5186;59.472;18.048;2024-02-14T00:23:53;7.43;;;4.23;;
10281;SDS011;5186;59.472;18.048;2024-02-14T00:26:18;9.10;;;4.70;;
10281;SDS011;5186;59.472;18.048;2024-02-14T00:28:44;6.80;;;4.10;;
10281;SDS011;5186;59.472;18.048;2024-02-14T00:31:10;8.10;;;4.43;;
10281;SDS011;5186;59.472;18.048;2024-02-14T00:33:35;8.73;;;4.70;;
10281;SDS011;5186;59.472;18.048;2024-02-14T00:36:01;9.17;;;4.70;;
10281;SDS011;5186;59.472;18.048;2024-02-14T00:38:27;8.73;;;4.47;;
10281;SDS011;5186;59.472;18.048;2024-02-14T00:40:53;7.80;;;4.20;;
10281;SDS011;5186;59.472;18.048;2024-02-14T00:43:18;7.37;;;4.10;;
10281;SDS011;5186;59.472;18.048;2024-02-14T00:45:44;6.40;;;3.80;;
10281;SDS011;5186;59.472;18.048;2024-02-14T00:48:10;8.13;;;4.60;;
10281;SDS011;5186;59.472;18.048;2024-02-14T00:50:36;8.37;;;4.77;;
10281;SDS011;5186;59.472;18.048;2024-02-14T00:53:02;7.53;;;4.33;;
10281;SDS011;5186;59.472;18.048;2024-02-14T00:55:28;8.80;;;4.30;;
10281;SDS011;5186;59.472;18.048;2024-02-14T00:57:54;7.70;;;4.37;;
10281;SDS011;5186;59.472;18.048;2024-02-14T01:00:19;6.77;;;4.40;;
10281;SDS011;5186;59.472;18.048;2024-02-14T01:02:45;7.20;;;4.53;;
10281;SDS011;5186;59.472;18.048;2024-02-14T01:05:11;8.33;;;4.47;;
10281;SDS011;5186;59.472;18.048;2024-02-14T01:07:36;7.23;;;4.40;;
10281;SDS011;5186;59.472;18.048;2024-02-14T01:10:02;8.87;;;4.47;;
10281;SDS011;5186;59.472;18.048;2024-02-14T01:12:28;7.50;;;4.70;;
10281;SDS011;5186;59.472;18.048;2024-02-14T01:14:57;7.53;;;4.57;;
10281;SDS011;5186;59.472;18.048;2024-02-14T01:17:23;8.33;;;4.63;;
10281;SDS011;5186;59.472;18.048;2024-02-14T01:19:49;7.27;;;3.87;;
10281;SDS011;5186;59.472;18.048;2024-02-14T01:22:15;6.33;;;4.03;;
10281;SDS011;5186;59.472;18.048;2024-02-14T01:24:42;7.43;;;4.47;;
10281;SDS011;5186;59.472;18.048;2024-02-14T01:27:08;9.93;;;4.63;;
10281;SDS011;5186;59.472;18.048;2024-02-14T01:29:34;7.77;;;4.30;;
10281;SDS011;5186;59.472;18.048;2024-02-14T01:31:59;8.10;;;5.00;;
10281;SDS011;5186;59.472;18.048;2024-02-14T01:34:25;11.67;;;4.73;;
10281;SDS011;5186;59.472;18.048;2024-02-14T01:36:53;9.17;;;4.77;;
10281;SDS011;5186;59.472;18.048;2024-02-14T01:39:19;12.47;;;5.40;;
10281;SDS011;5186;59.472;18.048;2024-02-14T01:41:47;8.47;;;4.73;;
10281;SDS011;5186;59.472;18.048;2024-02-14T01:44:17;10.07;;;4.70;;
10281;SDS011;5186;59.472;18.048;2024-02-14T01:46:43;11.17;;;4.90;;
10281;SDS011;5186;59.472;18.048;2024-02-14T01:49:13;9.03;;;4.60;;
10281;SDS011;5186;59.472;18.048;2024-02-14T01:51:41;8.93;;;4.87;;
10281;SDS011;5186;59.472;18.048;2024-02-14T01:54:10;9.27;;;4.30;;
10281;SDS011;5186;59.472;18.048;2024-02-14T01:56:37;7.03;;;4.43;;
10281;SDS011;5186;59.472;18.048;2024-02-14T01:59:04;6.83;;;4.00;;
10281;SDS011;5186;59.472;18.048;2024-02-14T02:01:31;9.47;;;5.10;;
10281;SDS011;5186;59.472;18.048;2024-02-14T02:03:57;10.33;;;5.60;;
10281;SDS011;5186;59.472;18.048;2024-02-14T02:06:23;11.00;;;5.47;;
10281;SDS011;5186;59.472;18.048;2024-02-14T02:08:51;7.73;;;4.07;;
10281;SDS011;5186;59.472;18.048;2024-02-14T02:11:17;9.27;;;4.93;;
10281;SDS011;5186;59.472;18.048;2024-02-14T02:13:42;8.27;;;4.43;;
10281;SDS011;5186;59.472;18.048;2024-02-14T02:16:08;9.77;;;4.43;;
10281;SDS011;5186;59.472;18.048;2024-02-14T02:18:34;8.40;;;4.57;;
10281;SDS011;5186;59.472;18.048;2024-02-14T02:21:00;7.83;;;4.23;;
10281;SDS011;5186;59.472;18.048;2024-02-14T02:23:29;9.37;;;4.40;;
10281;SDS011;5186;59.472;18.048;2024-02-14T02:25:56;7.27;;;4.13;;
10281;SDS011;5186;59.472;18.048;2024-02-14T02:28:21;8.43;;;4.67;;
10281;SDS011;5186;59.472;18.048;2024-02-14T02:30:47;8.60;;;4.90;;
10281;SDS011;5186;59.472;18.048;2024-02-14T02:33:13;7.27;;;4.07;;
10281;SDS011;5186;59.472;18.048;2024-02-14T02:35:41;8.17;;;4.63;;
10281;SDS011;5186;59.472;18.048;2024-02-14T02:38:07;7.70;;;4.67;;
10281;SDS011;5186;59.472;18.048;2024-02-14T02:40:33;7.90;;;4.70;;
10281;SDS011;5186;59.472;18.048;2024-02-14T02:42:58;6.87;;;4.33;;
10281;SDS011;5186;59.472;18.048;2024-02-14T02:45:25;10.13;;;4.73;;
10281;SDS011;5186;59.472;18.048;2024-02-14T02:47:51;9.83;;;4.67;;
10281;SDS011;5186;59.472;18.048;2024-02-14T02:50:17;8.67;;;5.47;;
10281;SDS011;5186;59.472;18.048;2024-02-14T02:52:42;9.50;;;5.10;;
10281;SDS011;5186;59.472;18.048;2024-02-14T02:55:08;7.60;;;4.57;;
10281;SDS011;5186;59.472;18.048;2024-02-14T02:57:35;10.20;;;5.27;;
10281;SDS011;5186;59.472;18.048;2024-02-14T03:00:02;8.20;;;5.27;;
10281;SDS011;5186;59.472;18.048;2024-02-14T03:02:30;6.87;;;4.50;;
10281;SDS011;5186;59.472;18.048;2024-02-14T03:04:56;8.40;;;4.83;;
10281;SDS011;5186;59.472;18.048;2024-02-14T03:07:22;7.87;;;4.93;;
10281;SDS011;5186;59.472;18.048;2024-02-14T03:09:48;8.47;;;4.77;;
10281;SDS011;5186;59.472;18.048;2024-02-14T03:12:14;9.17;;;5.30;;
10281;SDS011;5186;59.472;18.048;2024-02-14T03:14:41;9.20;;;5.80;;
10281;SDS011;5186;59.472;18.048;2024-02-14T03:17:09;9.03;;;5.00;;
10281;SDS011;5186;59.472;18.048;2024-02-14T03:19:35;9.50;;;5.03;;
10281;SDS011;5186;59.472;18.048;2024-02-14T03:22:04;9.23;;;4.93;;
10281;SDS011;5186;59.472;18.048;2024-02-14T03:24:34;7.93;;;5.07;;
10281;SDS011;5186;59.472;18.048;2024-02-14T03:27:01;9.53;;;5.13;;
10281;SDS011;5186;59.472;18.048;2024-02-14T03:29:29;9.47;;;4.97;;
10281;SDS011;5186;59.472;18.048;2024-02-14T03:31:55;10.20;;;5.33;;
10281;SDS011;5186;59.472;18.048;2024-02-14T03:34:23;7.50;;;4.47;;
10281;SDS011;5186;59.472;18.048;2024-02-14T03:36:50;10.20;;;5.27;;
10281;SDS011;5186;59.472;18.048;2024-02-14T03:39:15;9.13;;;5.13;;
10281;SDS011;5186;59.472;18.048;2024-02-14T03:41:42;8.03;;;4.70;;
10281;SDS011;5186;59.472;18.048;2024-02-14T03:44:07;9.60;;;4.93;;
10281;SDS011;5186;59.472;18.048;2024-02-14T03:46:33;8.63;;;5.93;;
10281;SDS011;5186;59.472;18.048;2024-02-14T03:49:00;9.23;;;5.37;;
10281;SDS011;5186;59.472;18.048;2024-02-14T03:51:26;11.63;;;5.70;;
10281;SDS011;5186;59.472;18.048;2024-02-14T03:53:52;10.23;;;5.83;;
10281;SDS011;5186;59.472;18.048;2024-02-14T03:56:18;11.27;;;5.57;;
10281;SDS011;5186;59.472;18.048;2024-02-14T03:58:43;10.53;;;6.33;;
10281;SDS011;5186;59.472;18.048;2024-02-14T04:01:09;11.10;;;6.20;;
10281;SDS011;5186;59.472;18.048;2024-02-14T04:03:35;10.97;;;6.27;;
10281;SDS011;5186;59.472;18.048;2024-02-14T04:06:00;9.77;;;5.77;;
10281;SDS011;5186;59.472;18.048;2024-02-14T04:08:26;11.87;;;6.40;;
10281;SDS011;5186;59.472;18.048;2024-02-14T04:10:52;9.60;;;5.83;;
10281;SDS011;5186;59.472;18.048;2024-02-14T04:13:20;11.53;;;5.90;;
10281;SDS011;5186;59.472;18.048;2024-02-14T04:15:46;11.87;;;6.30;;
10281;SDS011;5186;59.472;18.048;2024-02-14T04:18:12;10.20;;;5.80;;
10281;SDS011;5186;59.472;18.048;2024-02-14T04:20:40;10.20;;;6.03;;
10281;SDS011;5186;59.472;18.048;2024-02-14T04:23:06;11.30;;;6.13;;
10281;SDS011;5186;59.472;18.048;2024-02-14T04:25:32;9.80;;;5.73;;
10281;SDS011;5186;59.472;18.048;2024-02-14T04:27:59;12.70;;;6.30;;
10281;SDS011;5186;59.472;18.048;2024-02-14T04:30:25;12.00;;;6.07;;
10281;SDS011;5186;59.472;18.048;2024-02-14T04:32:51;10.23;;;5.90;;
10281;SDS011;5186;59.472;18.048;2024-02-14T04:35:17;10.83;;;5.70;;
10281;SDS011;5186;59.472;18.048;2024-02-14T04:37:45;12.20;;;5.80;;
10281;SDS011;5186;59.472;18.048;2024-02-14T04:40:12;10.60;;;6.00;;
10281;SDS011;5186;59.472;18.048;2024-02-14T04:42:39;11.23;;;6.13;;
10281;SDS011;5186;59.472;18.048;2024-02-14T04:45:05;11.27;;;5.80;;
10281;SDS011;5186;59.472;18.048;2024-02-14T04:47:32;10.10;;;5.80;;
10281;SDS011;5186;59.472;18.048;2024-02-14T04:49:57;12.10;;;5.93;;
10281;SDS011;5186;59.472;18.048;2024-02-14T04:52:23;9.93;;;6.10;;
10281;SDS011;5186;59.472;18.048;2024-02-14T04:54:49;11.27;;;6.27;;
10281;SDS011;5186;59.472;18.048;2024-02-14T04:57:14;11.90;;;6.47;;
10281;SDS011;5186;59.472;18.048;2024-02-14T04:59:40;11.47;;;6.13;;
10281;SDS011;5186;59.472;18.048;2024-02-14T05:02:06;9.03;;;5.30;;
10281;SDS011;5186;59.472;18.048;2024-02-14T05:04:32;10.10;;;6.03;;
10281;SDS011;5186;59.472;18.048;2024-02-14T05:07:00;11.03;;;5.80;;
10281;SDS011;5186;59.472;18.048;2024-02-14T05:09:25;10.77;;;6.03;;
10281;SDS011;5186;59.472;18.048;2024-02-14T05:11:51;13.60;;;6.10;;
10281;SDS011;5186;59.472;18.048;2024-02-14T05:14:17;10.50;;;5.83;;
10281;SDS011;5186;59.472;18.048;2024-02-14T05:16:43;8.17;;;5.70;;
10281;SDS011;5186;59.472;18.048;2024-02-14T05:19:08;12.30;;;6.63;;
10281;SDS011;5186;59.472;18.048;2024-02-14T05:21:34;12.80;;;6.43;;
10281;SDS011;5186;59.472;18.048;2024-02-14T05:24:00;10.73;;;6.53;;
10281;SDS011;5186;59.472;18.048;2024-02-14T05:26:26;11.83;;;6.60;;
10281;SDS011;5186;59.472;18.048;2024-02-14T05:28:52;13.00;;;6.77;;
10281;SDS011;5186;59.472;18.048;2024-02-14T05:31:17;12.37;;;7.07;;
10281;SDS011;5186;59.472;18.048;2024-02-14T05:33:43;12.20;;;7.23;;
10281;SDS011;5186;59.472;18.048;2024-02-14T05:36:09;14.80;;;7.97;;
10281;SDS011;5186;59.472;18.048;2024-02-14T05:38:35;14.33;;;7.03;;
10281;SDS011;5186;59.472;18.048;2024-02-14T05:41:00;12.43;;;7.13;;
10281;SDS011;5186;59.472;18.048;2024-02-14T05:43:26;14.50;;;6.87;;
10281;SDS011;5186;59.472;18.048;2024-02-14T05:45:52;12.33;;;6.40;;
10281;SDS011;5186;59.472;18.048;2024-02-14T05:48:19;10.03;;;6.37;;
10281;SDS011;5186;59.472;18.048;2024-02-14T05:50:45;12.20;;;7.03;;
10281;SDS011;5186;59.472;18.048;2024-02-14T05:53:10;11.57;;;6.87;;
10281;SDS011;5186;59.472;18.048;2024-02-14T05:55:37;10.97;;;6.87;;
10281;SDS011;5186;59.472;18.048;2024-02-14T05:58:03;12.50;;;7.23;;
10281;SDS011;5186;59.472;18.048;2024-02-14T06:00:29;12.60;;;6.43;;
10281;SDS011;5186;59.472;18.048;2024-02-14T06:02:55;13.77;;;7.60;;
10281;SDS011;5186;59.472;18.048;2024-02-14T06:05:21;12.97;;;7.40;;
10281;SDS011;5186;59.472;18.048;2024-02-14T06:07:46;12.37;;;7.57;;
10281;SDS011;5186;59.472;18.048;2024-02-14T06:10:12;14.10;;;8.13;;
10281;SDS011;5186;59.472;18.048;2024-02-14T06:12:38;16.33;;;8.37;;
10281;SDS011;5186;59.472;18.048;2024-02-14T06:15:08;14.47;;;8.00;;
10281;SDS011;5186;59.472;18.048;2024-02-14T06:17:34;15.60;;;7.60;;
10281;SDS011;5186;59.472;18.048;2024-02-14T06:20:00;13.60;;;7.53;;
10281;SDS011;5186;59.472;18.048;2024-02-14T06:22:30;15.47;;;8.60;;
10281;SDS011;5186;59.472;18.048;2024-02-14T06:24:57;17.57;;;9.10;;
10281;SDS011;5186;59.472;18.048;2024-02-14T06:27:23;15.33;;;8.63;;
10281;SDS011;5186;59.472;18.048;2024-02-14T06:29:49;17.17;;;8.47;;
10281;SDS011;5186;59.472;18.048;2024-02-14T06:32:14;15.53;;;8.30;;
10281;SDS011;5186;59.472;18.048;2024-02-14T06:34:40;15.20;;;8.77;;
10281;SDS011;5186;59.472;18.048;2024-02-14T06:37:06;16.73;;;9.53;;
10281;SDS011;5186;59.472;18.048;2024-02-14T06:39:31;17.90;;;9.60;;
10281;SDS011;5186;59.472;18.048;2024-02-14T06:41:57;19.50;;;9.47;;
10281;SDS011;5186;59.472;18.048;2024-02-14T06:44:23;17.00;;;9.60;;
10281;SDS011;5186;59.472;18.048;2024-02-14T06:46:49;16.73;;;9.03;;
10281;SDS011;5186;59.472;18.048;2024-02-14T06:49:17;19.77;;;10.40;;
10281;SDS011;5186;59.472;18.048;2024-02-14T06:51:43;16.60;;;8.87;;
10281;SDS011;5186;59.472;18.048;2024-02-14T06:54:10;17.50;;;9.20;;
10281;SDS011;5186;59.472;18.048;2024-02-14T06:56:37;17.10;;;9.00;;
10281;SDS011;5186;59.472;18.048;2024-02-14T06:59:03;17.80;;;9.80;;
10281;SDS011;5186;59.472;18.048;2024-02-14T07:01:29;16.07;;;9.00;;
10281;SDS011;5186;59.472;18.048;2024-02-14T07:03:55;19.20;;;9.40;;
10281;SDS011;5186;59.472;18.048;2024-02-14T07:06:20;18.07;;;8.93;;
10281;SDS011;5186;59.472;18.048;2024-02-14T07:08:47;16.90;;;9.33;;
10281;SDS011;5186;59.472;18.048;2024-02-14T07:11:13;17.70;;;9.37;;
10281;SDS011;5186;59.472;18.048;2024-02-14T07:13:38;18.77;;;9.60;;
10281;SDS011;5186;59.472;18.048;2024-02-14T07:16:04;16.90;;;8.87;;
10281;SDS011;5186;59.472;18.048;2024-02-14T07:18:30;20.10;;;9.80;;
10281;SDS011;5186;59.472;18.048;2024-02-14T07:20:56;16.53;;;9.07;;
10281;SDS011;5186;59.472;18.048;2024-02-14T07:23:21;17.00;;;8.90;;
10281;SDS011;5186;59.472;18.048;2024-02-14T07:25:47;18.10;;;9.43;;
10281;SDS011;5186;59.472;18.048;2024-02-14T07:28:13;19.37;;;9.67;;
10281;SDS011;5186;59.472;18.048;2024-02-14T07:30:38;16.63;;;9.33;;
10281;SDS011;5186;59.472;18.048;2024-02-14T07:33:04;19.27;;;9.93;;
10281;SDS011;5186;59.472;18.048;2024-02-14T07:35:29;18.13;;;9.60;;
10281;SDS011;5186;59.472;18.048;2024-02-14T07:37:55;16.70;;;8.87;;
10281;SDS011;5186;59.472;18.048;2024-02-14T07:40:21;19.00;;;10.17;;
10281;SDS011;5186;59.472;18.048;2024-02-14T07:42:47;17.43;;;9.67;;
10281;SDS011;5186;59.472;18.048;2024-02-14T07:45:14;17.87;;;9.63;;
10281;SDS011;5186;59.472;18.048;2024-02-14T07:47:40;16.40;;;8.90;;
10281;SDS011;5186;59.472;18.048;2024-02-14T07:50:06;16.90;;;9.87;;
10281;SDS011;5186;59.472;18.048;2024-02-14T07:52:32;16.00;;;9.00;;
10281;SDS011;5186;59.472;18.048;2024-02-14T07:54:58;18.87;;;10.30;;
10281;SDS011;5186;59.472;18.048;2024-02-14T07:57:24;18.47;;;10.23;;
10281;SDS011;5186;59.472;18.048;2024-02-14T07:59:50;18.37;;;9.83;;
10281;SDS011;5186;59.472;18.048;2024-02-14T08:02:20;18.07;;;9.83;;
10281;SDS011;5186;59.472;18.048;2024-02-14T08:04:45;16.57;;;9.07;;
10281;SDS011;5186;59.472;18.048;2024-02-14T08:07:11;20.10;;;9.53;;
10281;SDS011;5186;59.472;18.048;2024-02-14T08:09:37;18.50;;;10.17;;
10281;SDS011;5186;59.472;18.048;2024-02-14T08:12:04;17.67;;;9.17;;
10281;SDS011;5186;59.472;18.048;2024-02-14T08:14:30;20.40;;;11.10;;
10281;SDS011;5186;59.472;18.048;2024-02-14T08:16:56;25.00;;;11.07;;
10281;SDS011;5186;59.472;18.048;2024-02-14T08:19:22;22.63;;;11.07;;
10281;SDS011;5186;59.472;18.048;2024-02-14T08:21:48;25.67;;;11.83;;
10281;SDS011;5186;59.472;18.048;2024-02-14T08:24:13;21.50;;;11.37;;
10281;SDS011;5186;59.472;18.048;2024-02-14T08:26:39;24.30;;;11.63;;
10281;SDS011;5186;59.472;18.048;2024-02-14T08:29:04;26.50;;;12.07;;
10281;SDS011;5186;59.472;18.048;2024-02-14T08:31:30;27.87;;;12.57;;
10281;SDS011;5186;59.472;18.048;2024-02-14T08:33:57;28.27;;;12.30;;
10281;SDS011;5186;59.472;18.048;2024-02-14T08:36:23;28.57;;;13.67;;
10281;SDS011;5186;59.472;18.048;2024-02-14T08:38:49;29.37;;;13.00;;
10281;SDS011;5186;59.472;18.048;2024-02-14T08:41:15;29.33;;;13.30;;
10281;SDS011;5186;59.472;18.048;2024-02-14T08:43:40;29.60;;;13.27;;
10281;SDS011;5186;59.472;18.048;2024-02-14T08:46:10;31.37;;;12.80;;
10281;SDS011;5186;59.472;18.048;2024-02-14T08:48:36;30.23;;;13.37;;
10281;SDS011;5186;59.472;18.048;2024-02-14T08:51:06;39.03;;;14.07;;
10281;SDS011;5186;59.472;18.048;2024-02-14T08:53:34;36.83;;;14.13;;
10281;SDS011;5186;59.472;18.048;2024-02-14T08:56:00;34.10;;;12.73;;
10281;SDS011;5186;59.472;18.048;2024-02-14T08:58:26;35.10;;;13.57;;
10281;SDS011;5186;59.472;18.048;2024-02-14T09:00:52;33.80;;;13.70;;
10281;SDS011;5186;59.472;18.048;2024-02-14T09:03:18;40.40;;;14.20;;
10281;SDS011;5186;59.472;18.048;2024-02-14T09:05:44;42.10;;;14.73;;
10281;SDS011;5186;59.472;18.048;2024-02-14T09:08:11;39.97;;;13.93;;
10281;SDS011;5186;59.472;18.048;2024-02-14T09:10:37;35.40;;;14.03;;
10281;SDS011;5186;59.472;18.048;2024-02-14T09:13:03;42.50;;;15.07;;
10281;SDS011;5186;59.472;18.048;2024-02-14T09:15:29;38.87;;;14.80;;
10281;SDS011;5186;59.472;18.048;2024-02-14T09:17:56;39.30;;;14.30;;
10281;SDS011;5186;59.472;18.048;2024-02-14T09:20:22;45.70;;;14.30;;
10281;SDS011;5186;59.472;18.048;2024-02-14T09:22:47;37.37;;;15.33;;
10281;SDS011;5186;59.472;18.048;2024-02-14T09:25:13;34.53;;;13.73;;
10281;SDS011;5186;59.472;18.048;2024-02-14T09:27:39;38.07;;;13.87;;
10281;SDS011;5186;59.472;18.048;2024-02-14T09:30:06;42.33;;;13.77;;
10281;SDS011;5186;59.472;18.048;2024-02-14T09:32:33;35.53;;;14.40;;
10281;SDS011;5186;59.472;18.048;2024-02-14T09:34:59;36.30;;;13.63;;
10281;SDS011;5186;59.472;18.048;2024-02-14T09:37:25;35.33;;;12.67;;
10281;SDS011;5186;59.472;18.048;2024-02-14T09:39:51;33.53;;;12.67;;
10281;SDS011;5186;59.472;18.048;2024-02-14T09:42:16;26.47;;;10.03;;
10281;SDS011;5186;59.472;18.048;2024-02-14T09:44:47;25.93;;;10.30;;
10281;SDS011;5186;59.472;18.048;2024-02-14T09:47:17;21.23;;;10.20;;
10281;SDS011;5186;59.472;18.048;2024-02-14T09:49:44;21.37;;;9.37;;
10281;SDS011;5186;59.472;18.048;2024-02-14T09:52:10;14.67;;;7.47;;
10281;SDS011;5186;59.472;18.048;2024-02-14T09:54:37;20.33;;;8.13;;
10281;SDS011;5186;59.472;18.048;2024-02-14T09:57:04;20.47;;;8.43;;
10281;SDS011;5186;59.472;18.048;2024-02-14T09:59:31;16.50;;;7.93;;
10281;SDS011;5186;59.472;18.048;2024-02-14T10:01:57;20.37;;;8.93;;
10281;SDS011;5186;59.472;18.048;2024-02-14T10:04:23;18.43;;;8.43;;
10281;SDS011;5186;59.472;18.048;2024-02-14T10:06:49;20.87;;;8.63;;
10281;SDS011;5186;59.472;18.048;2024-02-14T10:09:21;19.03;;;8.30;;
10281;SDS011;5186;59.472;18.048;2024-02-14T10:11:48;16.73;;;7.70;;
10281;SDS011;5186;59.472;18.048;2024-02-14T10:14:14;17.63;;;7.40;;
10281;SDS011;5186;59.472;18.048;2024-02-14T10:16:39;21.77;;;9.53;;
10281;SDS011;5186;59.472;18.048;2024-02-14T10:19:13;18.30;;;7.90;;
10281;SDS011;5186;59.472;18.048;2024-02-14T10:21:43;16.33;;;8.43;;
10281;SDS011;5186;59.472;18.048;2024-02-14T10:24:09;19.33;;;8.33;;
10281;SDS011;5186;59.472;18.048;2024-02-14T10:26:36;15.40;;;7.60;;
10281;SDS011;5186;59.472;18.048;2024-02-14T10:29:02;17.13;;;7.43;;
10281;SDS011;5186;59.472;18.048;2024-02-14T10:31:28;15.90;;;7.30;;
10281;SDS011;5186;59.472;18.048;2024-02-14T10:33:54;13.43;;;6.87;;
10281;SDS011;5186;59.472;18.048;2024-02-14T10:36:21;12.50;;;6.10;;
10281;SDS011;5186;59.472;18.048;2024-02-14T10:38:47;14.33;;;7.37;;
10281;SDS011;5186;59.472;18.048;2024-02-14T10:41:15;18.10;;;6.93;;
10281;SDS011;5186;59.472;18.048;2024-02-14T10:43:41;13.00;;;7.07;;
10281;SDS011;5186;59.472;18.048;2024-02-14T10:46:09;14.37;;;7.43;;
10281;SDS011;5186;59.472;18.048;2024-02-14T10:48:43;14.27;;;6.70;;
10281;SDS011;5186;59.472;18.048;2024-02-14T10:51:09;12.20;;;6.43;;
10281;SDS011;5186;59.472;18.048;2024-02-14T10:53:40;15.93;;;7.47;;
10281;SDS011;5186;59.472;18.048;2024-02-14T10:56:10;16.30;;;7.07;;
10281;SDS011;5186;59.472;18.048;2024-02-14T10:58:41;15.77;;;7.27;;
10281;SDS011;5186;59.472;18.048;2024-02-14T11:01:09;14.17;;;6.63;;
10281;SDS011;5186;59.472;18.048;2024-02-14T11:03:34;13.47;;;6.53;;
10281;SDS011;5186;59.472;18.048;2024-02-14T11:06:01;12.47;;;5.97;;
10281;SDS011;5186;59.472;18.048;2024-02-14T11:08:29;10.80;;;5.77;;
10281;SDS011;5186;59.472;18.048;2024-02-14T11:10:58;12.63;;;6.30;;
10281;SDS011;5186;59.472;18.048;2024-02-14T11:13:25;10.47;;;5.43;;
10281;SDS011;5186;59.472;18.048;2024-02-14T11:15:53;10.10;;;5.40;;
10281;SDS011;5186;59.472;18.048;2024-02-14T11:18:29;10.70;;;5.60;;
10281;SDS011;5186;59.472;18.048;2024-02-14T11:20:55;13.67;;;6.43;;
10281;SDS011;5186;59.472;18.048;2024-02-14T11:23:24;11.67;;;6.00;;
10281;SDS011;5186;59.472;18.048;2024-02-14T11:25:58;14.50;;;6.63;;
10281;SDS011;5186;59.472;18.048;2024-02-14T11:28:40;15.83;;;8.43;;
10281;SDS011;5186;59.472;18.048;2024-02-14T11:31:07;16.73;;;8.43;;
10281;SDS011;5186;59.472;18.048;2024-02-14T11:33:34;16.20;;;7.70;;
10281;SDS011;5186;59.472;18.048;2024-02-14T11:36:01;14.13;;;6.93;;
10281;SDS011;5186;59.472;18.048;2024-02-14T11:38:36;18.53;;;7.90;;
10281;SDS011;5186;59.472;18.048;2024-02-14T11:41:02;15.77;;;7.03;;
10281;SDS011;5186;59.472;18.048;2024-02-14T11:43:28;13.97;;;7.23;;
10281;SDS011;5186;59.472;18.048;2024-02-14T11:45:55;17.87;;;7.70;;
10281;SDS011;5186;59.472;18.048;2024-02-14T11:48:21;16.40;;;6.93;;
10281;SDS011;5186;59.472;18.048;2024-02-14T11:50:48;13.07;;;7.33;;
10281;SDS011;5186;59.472;18.048;2024-02-14T11:53:15;18.47;;;8.17;;
10281;SDS011;5186;59.472;18.048;2024-02-14T11:55:43;15.77;;;7.80;;
10281;SDS011;5186;59.472;18.048;2024-02-14T11:58:12;17.90;;;7.83;;
10281;SDS011;5186;59.472;18.048;2024-02-14T12:00:39;15.23;;;8.00;;
10281;SDS011;5186;59.472;18.048;2024-02-14T12:03:21;17.10;;;8.07;;
10281;SDS011;5186;59.472;18.048;2024-02-14T12:05:49;18.90;;;7.63;;
10281;SDS011;5186;59.472;18.048;2024-02-14T12:08:16;15.30;;;7.60;;
10281;SDS011;5186;59.472;18.048;2024-02-14T12:10:43;18.40;;;7.73;;
10281;SDS011;5186;59.472;18.048;2024-02-14T12:13:14;16.63;;;8.07;;
10281;SDS011;5186;59.472;18.048;2024-02-14T12:15:43;22.07;;;9.30;;
10281;SDS011;5186;59.472;18.048;2024-02-14T12:18:10;21.80;;;10.13;;
10281;SDS011;5186;59.472;18.048;2024-02-14T12:20:39;18.50;;;8.73;;
10281;SDS011;5186;59.472;18.048;2024-02-14T12:23:13;16.13;;;7.57;;
10281;SDS011;5186;59.472;18.048;2024-02-14T12:25:47;19.17;;;8.10;;
10281;SDS011;5186;59.472;18.048;2024-02-14T12:28:15;17.57;;;8.50;;
10281;SDS011;5186;59.472;18.048;2024-02-14T12:33:21;19.17;;;8.63;;
10281;SDS011;5186;59.472;18.048;2024-02-14T12:35:49;19.80;;;8.63;;
10281;SDS011;5186;59.472;18.048;2024-02-14T12:38:16;19.40;;;8.53;;
10281;SDS011;5186;59.472;18.048;2024-02-14T12:40:43;18.47;;;8.37;;
10281;SDS011;5186;59.472;18.048;2024-02-14T12:43:10;19.67;;;9.17;;
10281;SDS011;5186;59.472;18.048;2024-02-14T12:45:40;19.40;;;8.73;;
10281;SDS011;5186;59.472;18.048;2024-02-14T12:48:07;20.50;;;9.33;;
10281;SDS011;5186;59.472;18.048;2024-02-14T12:50:33;19.83;;;8.47;;
10281;SDS011;5186;59.472;18.048;2024-02-14T12:53:00;18.27;;;9.03;;
10281;SDS011;5186;59.472;18.048;2024-02-14T12:55:27;20.43;;;8.80;;
10281;SDS011;5186;59.472;18.048;2024-02-14T12:57:54;19.03;;;8.90;;
10281;SDS011;5186;59.472;18.048;2024-02-14T13:00:21;23.13;;;9.47;;
10281;SDS011;5186;59.472;18.048;2024-02-14T13:02:47;23.67;;;9.43;;
10281;SDS011;5186;59.472;18.048;2024-02-14T13:05:13;25.87;;;10.13;;
10281;SDS011;5186;59.472;18.048;2024-02-14T13:07:39;23.70;;;10.20;;
10281;SDS011;5186;59.472;18.048;2024-02-14T13:10:06;20.93;;;10.50;;
10281;SDS011;5186;59.472;18.048;2024-02-14T13:12:34;19.00;;;9.77;;
10281;SDS011;5186;59.472;18.048;2024-02-14T13:15:00;21.70;;;9.63;;
10281;SDS011;5186;59.472;18.048;2024-02-14T13:17:26;23.67;;;10.83;;
10281;SDS011;5186;59.472;18.048;2024-02-14T13:19:52;25.87;;;10.03;;
10281;SDS011;5186;59.472;18.048;2024-02-14T13:22:18;21.07;;;10.03;;
10281;SDS011;5186;59.472;18.048;2024-02-14T13:24:44;22.10;;;10.43;;
10281;SDS011;5186;59.472;18.048;2024-02-14T13:27:10;22.07;;;10.57;;
10281;SDS011;5186;59.472;18.048;2024-02-14T13:29:36;21.53;;;9.93;;
10281;SDS011;5186;59.472;18.048;2024-02-14T13:32:01;24.57;;;11.63;;
10281;SDS011;5186;59.472;18.048;2024-02-14T13:34:27;24.37;;;10.60;;
10281;SDS011;5186;59.472;18.048;2024-02-14T13:36:53;21.20;;;10.37;;
10281;SDS011;5186;59.472;18.048;2024-02-14T13:39:20;25.27;;;10.33;;
10281;SDS011;5186;59.472;18.048;2024-02-14T13:41:46;24.67;;;10.17;;
10281;SDS011;5186;59.472;18.048;2024-02-14T13:44:12;21.73;;;9.57;;
10281;SDS011;5186;59.472;18.048;2024-02-14T13:46:38;27.83;;;10.60;;
10281;SDS011;5186;59.472;18.048;2024-02-14T13:49:10;27.37;;;10.90;;
10281;SDS011;5186;59.472;18.048;2024-02-14T13:51:36;24.67;;;11.03;;
10281;SDS011;5186;59.472;18.048;2024-02-14T13:54:02;25.63;;;10.80;;
10281;SDS011;5186;59.472;18.048;2024-02-14T13:56:28;22.57;;;10.10;;
10281;SDS011;5186;59.472;18.048;2024-02-14T13:58:54;23.07;;;10.60;;
10281;SDS011;5186;59.472;18.048;2024-02-14T14:01:20;23.23;;;10.00;;
10281;SDS011;5186;59.472;18.048;2024-02-14T14:03:45;25.67;;;10.80;;
10281;SDS011;5186;59.472;18.048;2024-02-14T14:06:12;26.50;;;10.23;;
10281;SDS011;5186;59.472;18.048;2024-02-14T14:08:38;24.33;;;10.10;;
10281;SDS011;5186;59.472;18.048;2024-02-14T14:11:04;23.53;;;9.17;;
10281;SDS011;5186;59.472;18.048;2024-02-14T14:13:30;24.33;;;9.50;;
10281;SDS011;5186;59.472;18.048;2024-02-14T14:15:58;18.57;;;9.10;;
10281;SDS011;5186;59.472;18.048;2024-02-14T14:18:24;22.43;;;9.40;;
10281;SDS011;5186;59.472;18.048;2024-02-14T14:20:50;21.30;;;10.43;;
10281;SDS011;5186;59.472;18.048;2024-02-14T14:23:16;20.90;;;9.30;;
10281;SDS011;5186;59.472;18.048;2024-02-14T14:25:41;22.30;;;9.57;;
10281;SDS011;5186;59.472;18.048;2024-02-14T14:28:07;25.83;;;9.80;;
10281;SDS011;5186;59.472;18.048;2024-02-14T14:30:34;24.97;;;10.50;;
10281;SDS011;5186;59.472;18.048;2024-02-14T14:33:00;19.83;;;8.33;;
10281;SDS011;5186;59.472;18.048;2024-02-14T14:35:26;18.87;;;8.87;;